sensor_id;sensor_type;location;lat;lon;timestamp;P1;durP1;ratioP1;P2;durP2;ratioP2
31284;SDS011;56605;51.516;6.742;2023-02-25T00:01:21;9.27;;;2.15;;
31284;SDS011;56605;51.516;6.742;2023-02-25T00:03:49;12.30;;;2.88;;
31284;SDS011;56605;51.516;6.742;2023-02-25T00:06:15;17.65;;;2.85;;
31284;SDS011;56605;51.516;6.742;2023-02-25T00:08:43;9.13;;;2.67;;
31284;SDS011;56605;51.516;6.742;2023-02-25T00:11:09;17.70;;;2.83;;
31284;SDS011;56605;51.516;6.742;2023-02-25T00:13:35;22.17;;;2.60;;
31284;SDS011;56605;51.516;6.742;2023-02-25T00:16:03;10.43;;;2.13;;
31284;SDS011;56605;51.516;6.742;2023-02-25T00:18:29;11.00;;;2.38;;
31284;SDS011;56605;51.516;6.742;2023-02-25T00:20:55;11.18;;;2.25;;
31284;SDS011;56605;51.516;6.742;2023-02-25T00:23:20;6.22;;;2.13;;
31284;SDS011;56605;51.516;6.742;2023-02-25T00:25:46;10.50;;;2.75;;
31284;SDS011;56605;51.516;6.742;2023-02-25T00:28:11;11.65;;;2.47;;
31284;SDS011;56605;51.516;6.742;2023-02-25T00:30:37;9.23;;;2.40;;
31284;SDS011;56605;51.516;6.742;2023-02-25T00:33:02;16.10;;;2.67;;
31284;SDS011;56605;51.516;6.742;2023-02-25T00:35:29;12.15;;;2.33;;
31284;SDS011;56605;51.516;6.742;2023-02-25T00:37:54;11.82;;;2.72;;
31284;SDS011;56605;51.516;6.742;2023-02-25T00:40:19;18.75;;;2.75;;
31284;SDS011;56605;51.516;6.742;2023-02-25T00:42:45;9.40;;;2.50;;
31284;SDS011;56605;51.516;6.742;2023-02-25T00:45:10;12.68;;;2.42;;
31284;SDS011;56605;51.516;6.742;2023-02-25T00:47:35;17.02;;;3.05;;
31284;SDS011;56605;51.516;6.742;2023-02-25T00:50:01;11.70;;;2.47;;
31284;SDS011;56605;51.516;6.742;2023-02-25T00:52:27;13.07;;;3.25;;
31284;SDS011;56605;51.516;6.742;2023-02-25T00:54:52;10.77;;;2.40;;
31284;SDS011;56605;51.516;6.742;2023-02-25T00:57:17;16.38;;;2.67;;
31284;SDS011;56605;51.516;6.742;2023-02-25T00:59:42;7.00;;;1.67;;
31284;SDS011;56605;51.516;6.742;2023-02-25T01:02:08;13.50;;;2.63;;
31284;SDS011;56605;51.516;6.742;2023-02-25T01:04:33;14.55;;;1.90;;
31284;SDS011;56605;51.516;6.742;2023-02-25T01:06:58;13.68;;;2.67;;
31284;SDS011;56605;51.516;6.742;2023-02-25T01:09:23;12.40;;;1.65;;
31284;SDS011;56605;51.516;6.742;2023-02-25T01:11:49;9.32;;;2.25;;
31284;SDS011;56605;51.516;6.742;2023-02-25T01:14:18;12.02;;;2.45;;
31284;SDS011;56605;51.516;6.742;2023-02-25T01:16:44;13.32;;;2.38;;
31284;SDS011;56605;51.516;6.742;2023-02-25T01:19:17;7.93;;;1.92;;
31284;SDS011;56605;51.516;6.742;2023-02-25T01:21:43;12.55;;;2.30;;
31284;SDS011;56605;51.516;6.742;2023-02-25T01:24:10;12.52;;;1.92;;
31284;SDS011;56605;51.516;6.742;2023-02-25T01:26:36;11.98;;;1.45;;
31284;SDS011;56605;51.516;6.742;2023-02-25T01:29:06;5.97;;;1.52;;
31284;SDS011;56605;51.516;6.742;2023-02-25T01:31:32;9.30;;;1.73;;
31284;SDS011;56605;51.516;6.742;2023-02-25T01:33:57;12.50;;;2.15;;
31284;SDS011;56605;51.516;6.742;2023-02-25T01:36:23;12.60;;;2.30;;
31284;SDS011;56605;51.516;6.742;2023-02-25T01:38:48;12.23;;;1.48;;
31284;SDS011;56605;51.516;6.742;2023-02-25T01:41:14;11.23;;;2.45;;
31284;SDS011;56605;51.516;6.742;2023-02-25T01:43:39;13.43;;;1.67;;
31284;SDS011;56605;51.516;6.742;2023-02-25T01:46:05;14.50;;;2.90;;
31284;SDS011;56605;51.516;6.742;2023-02-25T01:48:31;9.98;;;2.03;;
31284;SDS011;56605;51.516;6.742;2023-02-25T01:50:59;8.48;;;1.98;;
31284;SDS011;56605;51.516;6.742;2023-02-25T01:53:27;5.72;;;1.30;;
31284;SDS011;56605;51.516;6.742;2023-02-25T01:55:54;10.45;;;2.10;;
31284;SDS011;56605;51.516;6.742;2023-02-25T01:58:20;11.85;;;1.92;;
31284;SDS011;56605;51.516;6.742;2023-02-25T02:00:46;15.80;;;2.47;;
31284;SDS011;56605;51.516;6.742;2023-02-25T02:03:11;13.23;;;2.15;;
31284;SDS011;56605;51.516;6.742;2023-02-25T02:05:55;8.13;;;1.98;;
31284;SDS011;56605;51.516;6.742;2023-02-25T02:08:23;11.30;;;2.30;;
31284;SDS011;56605;51.516;6.742;2023-02-25T02:10:50;8.95;;;1.67;;
31284;SDS011;56605;51.516;6.742;2023-02-25T02:13:15;8.27;;;1.55;;
31284;SDS011;56605;51.516;6.742;2023-02-25T02:15:42;8.48;;;1.90;;
31284;SDS011;56605;51.516;6.742;2023-02-25T02:18:09;9.25;;;2.17;;
31284;SDS011;56605;51.516;6.742;2023-02-25T02:20:45;7.20;;;2.20;;
31284;SDS011;56605;51.516;6.742;2023-02-25T02:26:03;13.43;;;1.95;;
31284;SDS011;56605;51.516;6.742;2023-02-25T02:38:47;17.13;;;2.00;;
31284;SDS011;56605;51.516;6.742;2023-02-25T02:41:19;5.57;;;1.40;;
31284;SDS011;56605;51.516;6.742;2023-02-25T02:43:54;9.82;;;1.92;;
31284;SDS011;56605;51.516;6.742;2023-02-25T02:46:30;11.45;;;2.10;;
31284;SDS011;56605;51.516;6.742;2023-02-25T02:49:00;14.85;;;1.83;;
31284;SDS011;56605;51.516;6.742;2023-02-25T02:51:30;10.35;;;2.25;;
31284;SDS011;56605;51.516;6.742;2023-02-25T02:53:58;17.35;;;2.33;;
31284;SDS011;56605;51.516;6.742;2023-02-25T02:56:25;15.02;;;2.50;;
31284;SDS011;56605;51.516;6.742;2023-02-25T02:58:55;10.13;;;1.92;;
31284;SDS011;56605;51.516;6.742;2023-02-25T03:01:28;10.23;;;2.75;;
31284;SDS011;56605;51.516;6.742;2023-02-25T03:03:56;9.77;;;1.98;;
31284;SDS011;56605;51.516;6.742;2023-02-25T03:06:24;9.30;;;2.75;;
31284;SDS011;56605;51.516;6.742;2023-02-25T03:08:55;19.38;;;1.92;;
31284;SDS011;56605;51.516;6.742;2023-02-25T03:11:22;24.35;;;3.08;;
31284;SDS011;56605;51.516;6.742;2023-02-25T03:13:47;13.88;;;2.80;;
31284;SDS011;56605;51.516;6.742;2023-02-25T03:16:24;11.75;;;2.17;;
31284;SDS011;56605;51.516;6.742;2023-02-25T03:18:52;13.48;;;2.20;;
31284;SDS011;56605;51.516;6.742;2023-02-25T03:21:19;10.60;;;1.88;;
31284;SDS011;56605;51.516;6.742;2023-02-25T03:23:45;17.23;;;2.58;;
31284;SDS011;56605;51.516;6.742;2023-02-25T03:26:27;23.70;;;2.90;;
31284;SDS011;56605;51.516;6.742;2023-02-25T03:28:54;14.88;;;2.25;;
31284;SDS011;56605;51.516;6.742;2023-02-25T03:33:50;12.32;;;1.98;;
31284;SDS011;56605;51.516;6.742;2023-02-25T03:39:01;11.32;;;2.53;;
31284;SDS011;56605;51.516;6.742;2023-02-25T03:41:29;12.60;;;2.28;;
31284;SDS011;56605;51.516;6.742;2023-02-25T03:43:59;15.27;;;2.22;;
31284;SDS011;56605;51.516;6.742;2023-02-25T03:46:24;17.20;;;2.33;;
31284;SDS011;56605;51.516;6.742;2023-02-25T03:48:50;19.63;;;2.35;;
31284;SDS011;56605;51.516;6.742;2023-02-25T03:51:17;8.15;;;1.98;;
31284;SDS011;56605;51.516;6.742;2023-02-25T03:53:44;17.73;;;2.33;;
31284;SDS011;56605;51.516;6.742;2023-02-25T03:56:09;9.30;;;1.88;;
31284;SDS011;56605;51.516;6.742;2023-02-25T03:58:35;11.40;;;2.28;;
31284;SDS011;56605;51.516;6.742;2023-02-25T04:01:00;8.55;;;1.98;;
31284;SDS011;56605;51.516;6.742;2023-02-25T04:03:28;9.55;;;2.33;;
31284;SDS011;56605;51.516;6.742;2023-02-25T04:05:53;10.60;;;2.38;;
31284;SDS011;56605;51.516;6.742;2023-02-25T04:08:18;17.63;;;2.08;;
31284;SDS011;56605;51.516;6.742;2023-02-25T04:10:44;17.67;;;2.67;;
31284;SDS011;56605;51.516;6.742;2023-02-25T04:13:09;17.08;;;2.67;;
31284;SDS011;56605;51.516;6.742;2023-02-25T04:15:35;8.68;;;2.13;;
31284;SDS011;56605;51.516;6.742;2023-02-25T04:18:00;7.70;;;1.98;;
31284;SDS011;56605;51.516;6.742;2023-02-25T04:20:25;11.60;;;1.80;;
31284;SDS011;56605;51.516;6.742;2023-02-25T04:22:53;10.63;;;1.90;;
31284;SDS011;56605;51.516;6.742;2023-02-25T04:25:19;16.58;;;2.67;;
31284;SDS011;56605;51.516;6.742;2023-02-25T04:27:44;17.48;;;2.38;;
31284;SDS011;56605;51.516;6.742;2023-02-25T04:30:10;18.20;;;2.55;;
31284;SDS011;56605;51.516;6.742;2023-02-25T04:32:35;14.27;;;1.75;;
31284;SDS011;56605;51.516;6.742;2023-02-25T04:35:00;11.85;;;2.45;;
31284;SDS011;56605;51.516;6.742;2023-02-25T04:37:27;10.98;;;1.92;;
31284;SDS011;56605;51.516;6.742;2023-02-25T04:39:52;18.50;;;2.38;;
31284;SDS011;56605;51.516;6.742;2023-02-25T04:42:17;12.55;;;1.88;;
31284;SDS011;56605;51.516;6.742;2023-02-25T04:44:43;17.52;;;2.40;;
31284;SDS011;56605;51.516;6.742;2023-02-25T04:47:08;15.38;;;2.33;;
31284;SDS011;56605;51.516;6.742;2023-02-25T04:49:33;14.35;;;2.42;;
31284;SDS011;56605;51.516;6.742;2023-02-25T04:52:08;16.98;;;2.28;;
31284;SDS011;56605;51.516;6.742;2023-02-25T04:54:34;16.77;;;2.55;;
31284;SDS011;56605;51.516;6.742;2023-02-25T04:56:59;16.60;;;2.42;;
31284;SDS011;56605;51.516;6.742;2023-02-25T04:59:24;10.10;;;2.35;;
31284;SDS011;56605;51.516;6.742;2023-02-25T05:01:50;23.77;;;3.05;;
31284;SDS011;56605;51.516;6.742;2023-02-25T05:04:15;12.65;;;2.30;;
31284;SDS011;56605;51.516;6.742;2023-02-25T05:06:40;6.97;;;1.30;;
31284;SDS011;56605;51.516;6.742;2023-02-25T05:09:06;18.50;;;2.15;;
31284;SDS011;56605;51.516;6.742;2023-02-25T05:11:31;15.68;;;2.03;;
31284;SDS011;56605;51.516;6.742;2023-02-25T05:13:56;12.75;;;1.85;;
31284;SDS011;56605;51.516;6.742;2023-02-25T05:16:22;12.25;;;2.53;;
31284;SDS011;56605;51.516;6.742;2023-02-25T05:18:47;14.23;;;2.15;;
31284;SDS011;56605;51.516;6.742;2023-02-25T05:21:14;11.13;;;1.85;;
31284;SDS011;56605;51.516;6.742;2023-02-25T05:23:39;10.75;;;1.80;;
31284;SDS011;56605;51.516;6.742;2023-02-25T05:26:05;20.40;;;2.95;;
31284;SDS011;56605;51.516;6.742;2023-02-25T05:28:30;9.52;;;2.30;;
31284;SDS011;56605;51.516;6.742;2023-02-25T05:30:56;8.45;;;2.22;;
31284;SDS011;56605;51.516;6.742;2023-02-25T05:33:21;16.60;;;2.40;;
31284;SDS011;56605;51.516;6.742;2023-02-25T05:35:47;12.48;;;1.75;;
31284;SDS011;56605;51.516;6.742;2023-02-25T05:38:12;10.00;;;2.22;;
31284;SDS011;56605;51.516;6.742;2023-02-25T05:40:38;13.10;;;2.10;;
31284;SDS011;56605;51.516;6.742;2023-02-25T05:43:03;10.65;;;2.13;;
31284;SDS011;56605;51.516;6.742;2023-02-25T05:45:28;14.80;;;2.25;;
31284;SDS011;56605;51.516;6.742;2023-02-25T05:47:53;14.10;;;2.47;;
31284;SDS011;56605;51.516;6.742;2023-02-25T05:50:19;14.68;;;2.97;;
31284;SDS011;56605;51.516;6.742;2023-02-25T05:52:44;19.73;;;2.38;;
31284;SDS011;56605;51.516;6.742;2023-02-25T05:55:10;14.27;;;1.92;;
31284;SDS011;56605;51.516;6.742;2023-02-25T05:57:35;21.75;;;2.22;;
31284;SDS011;56605;51.516;6.742;2023-02-25T06:00:02;14.25;;;3.13;;
31284;SDS011;56605;51.516;6.742;2023-02-25T06:02:31;11.40;;;2.03;;
31284;SDS011;56605;51.516;6.742;2023-02-25T06:04:56;14.35;;;2.28;;
31284;SDS011;56605;51.516;6.742;2023-02-25T06:07:22;17.05;;;2.95;;
31284;SDS011;56605;51.516;6.742;2023-02-25T06:09:47;15.48;;;2.92;;
31284;SDS011;56605;51.516;6.742;2023-02-25T06:12:12;10.68;;;2.03;;
31284;SDS011;56605;51.516;6.742;2023-02-25T06:14:37;15.15;;;2.17;;
31284;SDS011;56605;51.516;6.742;2023-02-25T06:17:02;14.35;;;2.72;;
31284;SDS011;56605;51.516;6.742;2023-02-25T06:19:28;9.63;;;2.15;;
31284;SDS011;56605;51.516;6.742;2023-02-25T06:21:53;20.70;;;2.45;;
31284;SDS011;56605;51.516;6.742;2023-02-25T06:24:19;12.82;;;2.50;;
31284;SDS011;56605;51.516;6.742;2023-02-25T06:26:44;10.02;;;2.42;;
31284;SDS011;56605;51.516;6.742;2023-02-25T06:29:09;16.20;;;2.63;;
31284;SDS011;56605;51.516;6.742;2023-02-25T06:31:35;13.18;;;2.08;;
31284;SDS011;56605;51.516;6.742;2023-02-25T06:34:00;15.68;;;2.85;;
31284;SDS011;56605;51.516;6.742;2023-02-25T06:36:25;9.60;;;2.05;;
31284;SDS011;56605;51.516;6.742;2023-02-25T06:38:51;19.05;;;1.52;;
31284;SDS011;56605;51.516;6.742;2023-02-25T06:41:17;14.60;;;2.00;;
31284;SDS011;56605;51.516;6.742;2023-02-25T06:43:43;10.60;;;1.75;;
31284;SDS011;56605;51.516;6.742;2023-02-25T06:46:10;14.32;;;2.22;;
31284;SDS011;56605;51.516;6.742;2023-02-25T06:48:36;21.10;;;1.98;;
31284;SDS011;56605;51.516;6.742;2023-02-25T06:51:01;7.90;;;1.42;;
31284;SDS011;56605;51.516;6.742;2023-02-25T06:53:27;14.82;;;2.28;;
31284;SDS011;56605;51.516;6.742;2023-02-25T06:55:52;15.65;;;2.03;;
31284;SDS011;56605;51.516;6.742;2023-02-25T06:58:17;15.48;;;2.50;;
31284;SDS011;56605;51.516;6.742;2023-02-25T07:00:42;9.80;;;1.80;;
31284;SDS011;56605;51.516;6.742;2023-02-25T07:03:12;11.35;;;1.60;;
31284;SDS011;56605;51.516;6.742;2023-02-25T07:05:38;14.45;;;2.50;;
31284;SDS011;56605;51.516;6.742;2023-02-25T07:08:03;15.40;;;2.40;;
31284;SDS011;56605;51.516;6.742;2023-02-25T07:10:28;15.02;;;2.55;;
31284;SDS011;56605;51.516;6.742;2023-02-25T07:12:53;15.57;;;2.42;;
31284;SDS011;56605;51.516;6.742;2023-02-25T07:15:19;21.27;;;2.47;;
31284;SDS011;56605;51.516;6.742;2023-02-25T07:17:45;11.73;;;2.35;;
31284;SDS011;56605;51.516;6.742;2023-02-25T07:20:10;20.15;;;2.60;;
31284;SDS011;56605;51.516;6.742;2023-02-25T07:22:35;19.88;;;2.63;;
31284;SDS011;56605;51.516;6.742;2023-02-25T07:25:00;8.40;;;2.22;;
31284;SDS011;56605;51.516;6.742;2023-02-25T07:27:26;16.85;;;2.05;;
31284;SDS011;56605;51.516;6.742;2023-02-25T07:29:51;14.88;;;2.58;;
31284;SDS011;56605;51.516;6.742;2023-02-25T07:32:16;17.20;;;1.90;;
31284;SDS011;56605;51.516;6.742;2023-02-25T07:34:41;11.27;;;1.85;;
31284;SDS011;56605;51.516;6.742;2023-02-25T07:37:07;14.15;;;2.50;;
31284;SDS011;56605;51.516;6.742;2023-02-25T07:39:32;13.55;;;2.30;;
31284;SDS011;56605;51.516;6.742;2023-02-25T07:41:57;12.50;;;2.58;;
31284;SDS011;56605;51.516;6.742;2023-02-25T07:44:22;15.80;;;2.47;;
31284;SDS011;56605;51.516;6.742;2023-02-25T07:46:47;18.23;;;2.60;;
31284;SDS011;56605;51.516;6.742;2023-02-25T07:49:13;17.50;;;2.67;;
31284;SDS011;56605;51.516;6.742;2023-02-25T07:51:38;17.52;;;2.03;;
31284;SDS011;56605;51.516;6.742;2023-02-25T07:54:03;12.73;;;2.75;;
31284;SDS011;56605;51.516;6.742;2023-02-25T07:56:29;10.60;;;2.42;;
31284;SDS011;56605;51.516;6.742;2023-02-25T07:58:54;15.02;;;2.65;;
31284;SDS011;56605;51.516;6.742;2023-02-25T08:01:24;15.43;;;3.22;;
31284;SDS011;56605;51.516;6.742;2023-02-25T08:03:52;11.13;;;2.05;;
31284;SDS011;56605;51.516;6.742;2023-02-25T08:06:18;9.07;;;2.13;;
31284;SDS011;56605;51.516;6.742;2023-02-25T08:08:44;14.40;;;2.38;;
31284;SDS011;56605;51.516;6.742;2023-02-25T08:11:11;16.60;;;2.63;;
31284;SDS011;56605;51.516;6.742;2023-02-25T08:13:37;10.50;;;2.00;;
31284;SDS011;56605;51.516;6.742;2023-02-25T08:16:03;15.65;;;2.38;;
31284;SDS011;56605;51.516;6.742;2023-02-25T08:18:28;12.43;;;2.33;;
31284;SDS011;56605;51.516;6.742;2023-02-25T08:20:53;15.82;;;2.25;;
31284;SDS011;56605;51.516;6.742;2023-02-25T08:23:20;7.82;;;2.10;;
31284;SDS011;56605;51.516;6.742;2023-02-25T08:25:45;17.02;;;3.40;;
31284;SDS011;56605;51.516;6.742;2023-02-25T08:28:10;14.00;;;2.15;;
31284;SDS011;56605;51.516;6.742;2023-02-25T08:30:35;19.50;;;2.58;;
31284;SDS011;56605;51.516;6.742;2023-02-25T08:33:02;15.93;;;2.33;;
31284;SDS011;56605;51.516;6.742;2023-02-25T08:35:27;12.05;;;2.42;;
31284;SDS011;56605;51.516;6.742;2023-02-25T08:37:52;14.80;;;3.00;;
31284;SDS011;56605;51.516;6.742;2023-02-25T08:40:17;12.38;;;2.20;;
31284;SDS011;56605;51.516;6.742;2023-02-25T08:42:43;15.57;;;2.55;;
31284;SDS011;56605;51.516;6.742;2023-02-25T08:45:08;20.17;;;2.53;;
31284;SDS011;56605;51.516;6.742;2023-02-25T08:47:34;12.07;;;2.63;;
31284;SDS011;56605;51.516;6.742;2023-02-25T08:49:59;26.52;;;2.75;;
31284;SDS011;56605;51.516;6.742;2023-02-25T08:52:24;9.82;;;1.75;;
31284;SDS011;56605;51.516;6.742;2023-02-25T08:54:49;8.40;;;1.80;;
31284;SDS011;56605;51.516;6.742;2023-02-25T08:57:15;12.68;;;2.65;;
31284;SDS011;56605;51.516;6.742;2023-02-25T08:59:40;11.63;;;2.10;;
31284;SDS011;56605;51.516;6.742;2023-02-25T09:02:08;12.25;;;1.70;;
31284;SDS011;56605;51.516;6.742;2023-02-25T09:04:36;9.90;;;1.75;;
31284;SDS011;56605;51.516;6.742;2023-02-25T09:07:02;13.90;;;2.22;;
31284;SDS011;56605;51.516;6.742;2023-02-25T09:09:27;10.38;;;1.85;;
31284;SDS011;56605;51.516;6.742;2023-02-25T09:11:53;9.13;;;2.13;;
31284;SDS011;56605;51.516;6.742;2023-02-25T09:14:18;6.25;;;1.25;;
31284;SDS011;56605;51.516;6.742;2023-02-25T09:16:44;18.73;;;2.72;;
31284;SDS011;56605;51.516;6.742;2023-02-25T09:19:09;10.15;;;2.00;;
31284;SDS011;56605;51.516;6.742;2023-02-25T09:21:36;6.15;;;1.55;;
31284;SDS011;56605;51.516;6.742;2023-02-25T09:24:01;8.80;;;2.05;;
31284;SDS011;56605;51.516;6.742;2023-02-25T09:26:27;8.38;;;1.45;;
31284;SDS011;56605;51.516;6.742;2023-02-25T09:28:52;10.35;;;2.10;;
31284;SDS011;56605;51.516;6.742;2023-02-25T09:31:17;16.35;;;1.98;;
31284;SDS011;56605;51.516;6.742;2023-02-25T09:33:43;9.68;;;2.00;;
31284;SDS011;56605;51.516;6.742;2023-02-25T09:36:13;8.27;;;1.58;;
31284;SDS011;56605;51.516;6.742;2023-02-25T09:38:39;10.48;;;1.88;;
31284;SDS011;56605;51.516;6.742;2023-02-25T09:43:48;7.53;;;1.85;;
31284;SDS011;56605;51.516;6.742;2023-02-25T09:46:16;8.52;;;2.22;;
31284;SDS011;56605;51.516;6.742;2023-02-25T09:48:54;8.13;;;1.95;;
31284;SDS011;56605;51.516;6.742;2023-02-25T09:51:25;7.18;;;1.48;;
31284;SDS011;56605;51.516;6.742;2023-02-25T09:53:52;6.43;;;1.73;;
31284;SDS011;56605;51.516;6.742;2023-02-25T09:56:18;9.15;;;2.33;;
31284;SDS011;56605;51.516;6.742;2023-02-25T09:58:54;6.40;;;1.48;;
31284;SDS011;56605;51.516;6.742;2023-02-25T10:01:34;6.00;;;1.88;;
31284;SDS011;56605;51.516;6.742;2023-02-25T10:04:21;6.03;;;2.08;;
31284;SDS011;56605;51.516;6.742;2023-02-25T10:06:47;9.25;;;2.25;;
31284;SDS011;56605;51.516;6.742;2023-02-25T10:11:59;13.45;;;3.17;;
31284;SDS011;56605;51.516;6.742;2023-02-25T10:25:09;10.40;;;2.30;;
31284;SDS011;56605;51.516;6.742;2023-02-25T10:27:37;13.10;;;2.35;;
31284;SDS011;56605;51.516;6.742;2023-02-25T10:32:35;5.93;;;2.03;;
31284;SDS011;56605;51.516;6.742;2023-02-25T10:35:11;10.73;;;2.13;;
31284;SDS011;56605;51.516;6.742;2023-02-25T10:37:37;7.85;;;1.33;;
31284;SDS011;56605;51.516;6.742;2023-02-25T10:40:03;6.07;;;1.23;;
31284;SDS011;56605;51.516;6.742;2023-02-25T10:42:29;8.85;;;1.23;;
31284;SDS011;56605;51.516;6.742;2023-02-25T10:44:57;3.63;;;1.08;;
31284;SDS011;56605;51.516;6.742;2023-02-25T10:47:32;10.27;;;1.10;;
31284;SDS011;56605;51.516;6.742;2023-02-25T10:52:51;3.10;;;0.80;;
31284;SDS011;56605;51.516;6.742;2023-02-25T10:55:38;3.95;;;1.45;;
31284;SDS011;56605;51.516;6.742;2023-02-25T10:58:04;7.70;;;1.05;;
31284;SDS011;56605;51.516;6.742;2023-02-25T11:00:30;5.43;;;1.75;;
31284;SDS011;56605;51.516;6.742;2023-02-25T11:02:56;5.22;;;1.42;;
31284;SDS011;56605;51.516;6.742;2023-02-25T11:05:28;7.20;;;1.55;;
31284;SDS011;56605;51.516;6.742;2023-02-25T11:07:54;5.97;;;1.17;;
31284;SDS011;56605;51.516;6.742;2023-02-25T11:10:21;2.20;;;0.70;;
31284;SDS011;56605;51.516;6.742;2023-02-25T11:12:47;3.20;;;1.20;;
31284;SDS011;56605;51.516;6.742;2023-02-25T11:17:54;6.03;;;1.50;;
31284;SDS011;56605;51.516;6.742;2023-02-25T11:20:24;6.30;;;1.40;;
31284;SDS011;56605;51.516;6.742;2023-02-25T11:22:53;5.50;;;1.35;;
31284;SDS011;56605;51.516;6.742;2023-02-25T11:25:19;7.57;;;1.30;;
31284;SDS011;56605;51.516;6.742;2023-02-25T11:27:52;3.65;;;1.25;;
31284;SDS011;56605;51.516;6.742;2023-02-25T11:30:19;4.97;;;1.35;;
31284;SDS011;56605;51.516;6.742;2023-02-25T11:32:49;5.82;;;1.60;;
31284;SDS011;56605;51.516;6.742;2023-02-25T11:37:49;5.57;;;1.10;;
31284;SDS011;56605;51.516;6.742;2023-02-25T11:40:28;5.10;;;1.25;;
31284;SDS011;56605;51.516;6.742;2023-02-25T11:45:24;1.85;;;0.80;;
31284;SDS011;56605;51.516;6.742;2023-02-25T11:47:51;3.40;;;0.80;;
31284;SDS011;56605;51.516;6.742;2023-02-25T11:52:49;8.32;;;1.33;;
31284;SDS011;56605;51.516;6.742;2023-02-25T11:58:03;8.48;;;1.45;;
31284;SDS011;56605;51.516;6.742;2023-02-25T12:06:02;5.70;;;1.30;;
31284;SDS011;56605;51.516;6.742;2023-02-25T12:08:34;5.90;;;1.05;;
31284;SDS011;56605;51.516;6.742;2023-02-25T12:13:53;6.32;;;1.10;;
31284;SDS011;56605;51.516;6.742;2023-02-25T12:16:31;11.48;;;1.77;;
31284;SDS011;56605;51.516;6.742;2023-02-25T12:24:39;5.85;;;1.27;;
31284;SDS011;56605;51.516;6.742;2023-02-25T12:27:25;6.45;;;1.33;;
31284;SDS011;56605;51.516;6.742;2023-02-25T12:43:01;5.07;;;1.50;;
31284;SDS011;56605;51.516;6.742;2023-02-25T12:51:11;6.03;;;2.05;;
31284;SDS011;56605;51.516;6.742;2023-02-25T12:53:45;5.05;;;1.23;;
31284;SDS011;56605;51.516;6.742;2023-02-25T12:59:09;5.78;;;1.00;;
31284;SDS011;56605;51.516;6.742;2023-02-25T13:04:11;9.90;;;1.90;;
31284;SDS011;56605;51.516;6.742;2023-02-25T13:06:54;6.60;;;1.20;;
31284;SDS011;56605;51.516;6.742;2023-02-25T13:12:42;4.88;;;1.10;;
31284;SDS011;56605;51.516;6.742;2023-02-25T13:15:24;3.33;;;0.80;;
31284;SDS011;56605;51.516;6.742;2023-02-25T13:18:10;3.92;;;1.20;;
31284;SDS011;56605;51.516;6.742;2023-02-25T13:23:18;5.15;;;1.20;;
31284;SDS011;56605;51.516;6.742;2023-02-25T13:25:52;3.38;;;1.13;;
31284;SDS011;56605;51.516;6.742;2023-02-25T13:28:24;5.75;;;1.65;;
31284;SDS011;56605;51.516;6.742;2023-02-25T13:30:58;7.35;;;1.50;;
31284;SDS011;56605;51.516;6.742;2023-02-25T13:48:54;1.58;;;0.85;;
31284;SDS011;56605;51.516;6.742;2023-02-25T13:51:25;3.50;;;0.90;;
31284;SDS011;56605;51.516;6.742;2023-02-25T13:56:42;6.38;;;1.30;;
31284;SDS011;56605;51.516;6.742;2023-02-25T13:59:16;2.25;;;0.90;;
31284;SDS011;56605;51.516;6.742;2023-02-25T14:09:57;2.03;;;0.70;;
31284;SDS011;56605;51.516;6.742;2023-02-25T14:17:33;0.82;;;0.65;;
31284;SDS011;56605;51.516;6.742;2023-02-25T14:22:55;4.88;;;0.80;;
31284;SDS011;56605;51.516;6.742;2023-02-25T14:31:01;4.22;;;0.85;;
31284;SDS011;56605;51.516;6.742;2023-02-25T14:33:34;3.15;;;0.70;;
31284;SDS011;56605;51.516;6.742;2023-02-25T14:36:05;2.95;;;1.23;;
31284;SDS011;56605;51.516;6.742;2023-02-25T14:38:50;2.97;;;0.70;;
31284;SDS011;56605;51.516;6.742;2023-02-25T14:43:59;3.10;;;0.88;;
31284;SDS011;56605;51.516;6.742;2023-02-25T14:49:03;3.47;;;1.48;;
31284;SDS011;56605;51.516;6.742;2023-02-25T14:54:13;2.25;;;0.80;;
31284;SDS011;56605;51.516;6.742;2023-02-25T14:57:01;4.95;;;1.23;;
31284;SDS011;56605;51.516;6.742;2023-02-25T15:17:21;2.75;;;0.60;;
31284;SDS011;56605;51.516;6.742;2023-02-25T15:22:33;2.67;;;0.80;;
31284;SDS011;56605;51.516;6.742;2023-02-25T15:25:26;3.35;;;0.85;;
31284;SDS011;56605;51.516;6.742;2023-02-25T15:27:53;3.20;;;0.77;;
31284;SDS011;56605;51.516;6.742;2023-02-25T15:35:19;2.50;;;0.75;;
31284;SDS011;56605;51.516;6.742;2023-02-25T15:42:46;3.95;;;1.15;;
31284;SDS011;56605;51.516;6.742;2023-02-25T15:48:35;3.38;;;1.17;;
31284;SDS011;56605;51.516;6.742;2023-02-25T15:58:45;3.28;;;0.90;;
31284;SDS011;56605;51.516;6.742;2023-02-25T16:03:45;4.25;;;0.70;;
31284;SDS011;56605;51.516;6.742;2023-02-25T16:08:44;2.20;;;0.88;;
31284;SDS011;56605;51.516;6.742;2023-02-25T16:11:17;4.85;;;1.23;;
31284;SDS011;56605;51.516;6.742;2023-02-25T16:13:43;3.55;;;0.90;;
31284;SDS011;56605;51.516;6.742;2023-02-25T16:16:08;3.50;;;1.13;;
31284;SDS011;56605;51.516;6.742;2023-02-25T16:18:38;3.15;;;0.88;;
31284;SDS011;56605;51.516;6.742;2023-02-25T16:21:09;4.22;;;1.13;;
31284;SDS011;56605;51.516;6.742;2023-02-25T16:23:37;4.13;;;0.75;;
31284;SDS011;56605;51.516;6.742;2023-02-25T16:26:07;2.90;;;1.00;;
31284;SDS011;56605;51.516;6.742;2023-02-25T16:31:16;3.67;;;0.90;;
31284;SDS011;56605;51.516;6.742;2023-02-25T16:36:34;3.83;;;1.20;;
31284;SDS011;56605;51.516;6.742;2023-02-25T16:39:00;4.32;;;1.00;;
31284;SDS011;56605;51.516;6.742;2023-02-25T16:41:27;3.90;;;0.90;;
31284;SDS011;56605;51.516;6.742;2023-02-25T16:43:52;3.42;;;0.95;;
31284;SDS011;56605;51.516;6.742;2023-02-25T16:46:21;3.38;;;0.90;;
31284;SDS011;56605;51.516;6.742;2023-02-25T16:48:47;2.15;;;0.80;;
31284;SDS011;56605;51.516;6.742;2023-02-25T16:54:04;3.55;;;1.58;;
31284;SDS011;56605;51.516;6.742;2023-02-25T16:56:30;4.20;;;0.98;;
31284;SDS011;56605;51.516;6.742;2023-02-25T16:59:00;8.30;;;1.33;;
31284;SDS011;56605;51.516;6.742;2023-02-25T17:01:27;4.35;;;1.20;;
31284;SDS011;56605;51.516;6.742;2023-02-25T17:03:59;3.53;;;1.00;;
31284;SDS011;56605;51.516;6.742;2023-02-25T17:06:24;2.40;;;0.98;;
31284;SDS011;56605;51.516;6.742;2023-02-25T17:08:49;5.45;;;1.15;;
31284;SDS011;56605;51.516;6.742;2023-02-25T17:11:15;3.95;;;0.90;;
31284;SDS011;56605;51.516;6.742;2023-02-25T17:13:40;4.43;;;1.58;;
31284;SDS011;56605;51.516;6.742;2023-02-25T17:16:06;8.15;;;1.90;;
31284;SDS011;56605;51.516;6.742;2023-02-25T17:18:52;2.90;;;0.95;;
31284;SDS011;56605;51.516;6.742;2023-02-25T17:21:28;4.85;;;1.10;;
31284;SDS011;56605;51.516;6.742;2023-02-25T17:23:55;5.68;;;1.00;;
31284;SDS011;56605;51.516;6.742;2023-02-25T17:26:21;5.93;;;1.48;;
31284;SDS011;56605;51.516;6.742;2023-02-25T17:28:48;6.80;;;1.30;;
31284;SDS011;56605;51.516;6.742;2023-02-25T17:31:17;3.40;;;1.40;;
31284;SDS011;56605;51.516;6.742;2023-02-25T17:33:50;3.45;;;1.27;;
31284;SDS011;56605;51.516;6.742;2023-02-25T17:36:17;4.28;;;1.10;;
31284;SDS011;56605;51.516;6.742;2023-02-25T17:38:43;3.55;;;1.20;;
31284;SDS011;56605;51.516;6.742;2023-02-25T17:41:15;2.88;;;1.30;;
31284;SDS011;56605;51.516;6.742;2023-02-25T17:43:41;7.35;;;1.35;;
31284;SDS011;56605;51.516;6.742;2023-02-25T17:46:13;9.27;;;1.33;;
31284;SDS011;56605;51.516;6.742;2023-02-25T17:48:39;4.25;;;1.10;;
31284;SDS011;56605;51.516;6.742;2023-02-25T17:51:07;2.75;;;1.05;;
31284;SDS011;56605;51.516;6.742;2023-02-25T17:53:49;6.03;;;1.00;;
31284;SDS011;56605;51.516;6.742;2023-02-25T17:56:22;4.63;;;1.50;;
31284;SDS011;56605;51.516;6.742;2023-02-25T17:58:59;2.47;;;0.70;;
31284;SDS011;56605;51.516;6.742;2023-02-25T18:01:27;4.35;;;1.00;;
31284;SDS011;56605;51.516;6.742;2023-02-25T18:03:53;4.85;;;1.30;;